sensor_id;sensor_type;location;lat;lon;timestamp;temperature;humidity
4643;DHT22;2334;48.710;9.622;2022-09-17T00:02:16;10.70;99.90
4643;DHT22;2334;48.710;9.622;2022-09-17T00:04:43;10.70;99.90
4643;DHT22;2334;48.710;9.622;2022-09-17T00:07:10;10.60;99.90
4643;DHT22;2334;48.710;9.622;2022-09-17T00:09:36;10.70;99.90
4643;DHT22;2334;48.710;9.622;2022-09-17T00:12:04;10.70;99.90
4643;DHT22;2334;48.710;9.622;2022-09-17T00:14:32;10.70;99.90
4643;DHT22;2334;48.710;9.622;2022-09-17T00:16:59;10.80;99.90
4643;DHT22;2334;48.710;9.622;2022-09-17T00:19:26;10.70;99.90
4643;DHT22;2334;48.710;9.622;2022-09-17T00:21:53;10.70;99.90
4643;DHT22;2334;48.710;9.622;2022-09-17T00:24:20;10.70;99.90
4643;DHT22;2334;48.710;9.622;2022-09-17T00:26:48;10.60;99.90
4643;DHT22;2334;48.710;9.622;2022-09-17T00:29:15;10.60;99.90
4643;DHT22;2334;48.710;9.622;2022-09-17T00:31:43;10.60;99.90
4643;DHT22;2334;48.710;9.622;2022-09-17T00:34:10;10.50;99.90
4643;DHT22;2334;48.710;9.622;2022-09-17T00:36:38;10.50;99.90
4643;DHT22;2334;48.710;9.622;2022-09-17T00:39:06;10.60;99.90
4643;DHT22;2334;48.710;9.622;2022-09-17T00:41:34;10.60;99.90
4643;DHT22;2334;48.710;9.622;2022-09-17T00:47:12;10.60;99.90
4643;DHT22;2334;48.710;9.622;2022-09-17T00:49:39;10.50;99.90
4643;DHT22;2334;48.710;9.622;2022-09-17T00:52:09;10.40;99.90
4643;DHT22;2334;48.710;9.622;2022-09-17T00:54:40;10.40;99.90
4643;DHT22;2334;48.710;9.622;2022-09-17T00:57:08;10.40;99.90
4643;DHT22;2334;48.710;9.622;2022-09-17T00:59:34;10.40;99.90
4643;DHT22;2334;48.710;9.622;2022-09-17T01:02:03;10.30;99.90
4643;DHT22;2334;48.710;9.622;2022-09-17T01:04:31;10.30;99.90
4643;DHT22;2334;48.710;9.622;2022-09-17T01:07:03;10.20;99.90
4643;DHT22;2334;48.710;9.622;2022-09-17T01:09:38;10.20;99.90
4643;DHT22;2334;48.710;9.622;2022-09-17T01:12:30;10.20;99.90
4643;DHT22;2334;48.710;9.622;2022-09-17T01:15:12;10.20;99.90
4643;DHT22;2334;48.710;9.622;2022-09-17T01:17:45;10.20;99.90
4643;DHT22;2334;48.710;9.622;2022-09-17T01:26:50;10.20;99.90
4643;DHT22;2334;48.710;9.622;2022-09-17T01:29:36;10.20;99.90
4643;DHT22;2334;48.710;9.622;2022-09-17T01:32:11;10.20;99.90
4643;DHT22;2334;48.710;9.622;2022-09-17T01:34:48;10.20;99.90
4643;DHT22;2334;48.710;9.622;2022-09-17T01:37:26;10.30;99.90
4643;DHT22;2334;48.710;9.622;2022-09-17T01:40:00;10.30;99.90
4643;DHT22;2334;48.710;9.622;2022-09-17T01:42:35;10.40;99.90
4643;DHT22;2334;48.710;9.622;2022-09-17T01:45:08;10.40;99.90
4643;DHT22;2334;48.710;9.622;2022-09-17T01:47:41;10.40;99.90
4643;DHT22;2334;48.710;9.622;2022-09-17T01:50:12;10.40;99.90
4643;DHT22;2334;48.710;9.622;2022-09-17T01:52:43;10.40;99.90
4643;DHT22;2334;48.710;9.622;2022-09-17T01:55:13;10.40;99.90
4643;DHT22;2334;48.710;9.622;2022-09-17T01:57:44;10.40;99.90
4643;DHT22;2334;48.710;9.622;2022-09-17T02:00:13;10.40;99.90
4643;DHT22;2334;48.710;9.622;2022-09-17T02:02:47;10.40;99.90
4643;DHT22;2334;48.710;9.622;2022-09-17T02:05:18;10.40;99.90
4643;DHT22;2334;48.710;9.622;2022-09-17T02:07:49;10.40;99.90
4643;DHT22;2334;48.710;9.622;2022-09-17T02:10:18;10.40;99.90
4643;DHT22;2334;48.710;9.622;2022-09-17T02:12:50;10.30;99.90
4643;DHT22;2334;48.710;9.622;2022-09-17T02:15:21;10.30;99.90
4643;DHT22;2334;48.710;9.622;2022-09-17T02:17:53;10.30;99.90
4643;DHT22;2334;48.710;9.622;2022-09-17T02:20:25;10.30;99.90
4643;DHT22;2334;48.710;9.622;2022-09-17T02:22:55;10.30;99.90
4643;DHT22;2334;48.710;9.622;2022-09-17T02:25:27;10.30;99.90
4643;DHT22;2334;48.710;9.622;2022-09-17T02:27:59;10.40;99.90
4643;DHT22;2334;48.710;9.622;2022-09-17T02:30:28;10.40;99.90
4643;DHT22;2334;48.710;9.622;2022-09-17T02:32:57;10.30;99.90
4643;DHT22;2334;48.710;9.622;2022-09-17T02:35:24;10.30;99.90
4643;DHT22;2334;48.710;9.622;2022-09-17T02:37:51;10.30;99.90
4643;DHT22;2334;48.710;9.622;2022-09-17T02:40:19;10.30;99.90
4643;DHT22;2334;48.710;9.622;2022-09-17T02:43:00;10.40;99.90
4643;DHT22;2334;48.710;9.622;2022-09-17T02:45:39;10.40;99.90
4643;DHT22;2334;48.710;9.622;2022-09-17T02:48:23;10.40;99.90
4643;DHT22;2334;48.710;9.622;2022-09-17T02:51:17;10.40;99.90
4643;DHT22;2334;48.710;9.622;2022-09-17T02:53:55;10.40;99.90
4643;DHT22;2334;48.710;9.622;2022-09-17T02:56:31;10.40;99.90
4643;DHT22;2334;48.710;9.622;2022-09-17T02:59:11;10.30;99.90
4643;DHT22;2334;48.710;9.622;2022-09-17T03:01:42;10.30;99.90
4643;DHT22;2334;48.710;9.622;2022-09-17T03:04:12;10.20;99.90
4643;DHT22;2334;48.710;9.622;2022-09-17T03:06:42;10.20;99.90
4643;DHT22;2334;48.710;9.622;2022-09-17T03:09:10;10.20;99.90
4643;DHT22;2334;48.710;9.622;2022-09-17T03:11:37;10.20;99.90
4643;DHT22;2334;48.710;9.622;2022-09-17T03:14:06;10.10;99.90
4643;DHT22;2334;48.710;9.622;2022-09-17T03:16:32;10.10;99.90
4643;DHT22;2334;48.710;9.622;2022-09-17T03:18:59;10.10;99.90
4643;DHT22;2334;48.710;9.622;2022-09-17T03:21:27;10.00;99.90
4643;DHT22;2334;48.710;9.622;2022-09-17T03:23:55;9.90;99.90
4643;DHT22;2334;48.710;9.622;2022-09-17T03:26:24;9.90;99.90
4643;DHT22;2334;48.710;9.622;2022-09-17T03:28:52;9.80;99.90
4643;DHT22;2334;48.710;9.622;2022-09-17T03:31:19;9.80;99.90
4643;DHT22;2334;48.710;9.622;2022-09-17T03:33:45;9.80;99.90
4643;DHT22;2334;48.710;9.622;2022-09-17T03:36:13;9.70;99.90
4643;DHT22;2334;48.710;9.622;2022-09-17T03:38:41;9.80;99.90
4643;DHT22;2334;48.710;9.622;2022-09-17T03:41:08;9.70;99.90
4643;DHT22;2334;48.710;9.622;2022-09-17T03:43:36;9.80;99.90
4643;DHT22;2334;48.710;9.622;2022-09-17T03:46:04;9.80;99.90
4643;DHT22;2334;48.710;9.622;2022-09-17T03:48:31;9.90;99.90
4643;DHT22;2334;48.710;9.622;2022-09-17T03:51:01;9.80;99.90
4643;DHT22;2334;48.710;9.622;2022-09-17T03:53:28;9.80;99.90
4643;DHT22;2334;48.710;9.622;2022-09-17T03:55:58;9.80;99.90
4643;DHT22;2334;48.710;9.622;2022-09-17T03:58:26;9.80;99.90
4643;DHT22;2334;48.710;9.622;2022-09-17T04:00:53;9.70;99.90
4643;DHT22;2334;48.710;9.622;2022-09-17T04:03:22;9.80;99.90
4643;DHT22;2334;48.710;9.622;2022-09-17T04:05:49;9.80;99.90
4643;DHT22;2334;48.710;9.622;2022-09-17T04:08:16;9.80;99.90
4643;DHT22;2334;48.710;9.622;2022-09-17T04:10:44;9.80;99.90
4643;DHT22;2334;48.710;9.622;2022-09-17T04:13:13;9.70;99.90
4643;DHT22;2334;48.710;9.622;2022-09-17T04:15:41;9.80;99.90
4643;DHT22;2334;48.710;9.622;2022-09-17T04:18:08;9.80;99.90
4643;DHT22;2334;48.710;9.622;2022-09-17T04:20:34;9.80;99.90
4643;DHT22;2334;48.710;9.622;2022-09-17T04:23:02;9.80;99.90
4643;DHT22;2334;48.710;9.622;2022-09-17T04:25:29;9.70;99.90
4643;DHT22;2334;48.710;9.622;2022-09-17T04:27:55;9.70;99.90
4643;DHT22;2334;48.710;9.622;2022-09-17T04:30:24;9.70;99.90
4643;DHT22;2334;48.710;9.622;2022-09-17T04:32:50;9.80;99.90
4643;DHT22;2334;48.710;9.622;2022-09-17T04:35:17;9.80;99.90
4643;DHT22;2334;48.710;9.622;2022-09-17T04:37:51;9.80;99.90
4643;DHT22;2334;48.710;9.622;2022-09-17T04:40:18;9.80;99.90
4643;DHT22;2334;48.710;9.622;2022-09-17T04:42:45;9.80;99.90
4643;DHT22;2334;48.710;9.622;2022-09-17T04:45:11;9.80;99.90
4643;DHT22;2334;48.710;9.622;2022-09-17T04:47:40;9.90;99.90
4643;DHT22;2334;48.710;9.622;2022-09-17T04:50:07;9.80;99.90
4643;DHT22;2334;48.710;9.622;2022-09-17T04:52:34;9.80;99.90
4643;DHT22;2334;48.710;9.622;2022-09-17T04:55:01;9.80;99.90
4643;DHT22;2334;48.710;9.622;2022-09-17T04:57:28;9.80;99.90
4643;DHT22;2334;48.710;9.622;2022-09-17T04:59:55;9.90;99.90
4643;DHT22;2334;48.710;9.622;2022-09-17T05:02:22;9.80;99.90
4643;DHT22;2334;48.710;9.622;2022-09-17T05:04:51;9.80;99.90
4643;DHT22;2334;48.710;9.622;2022-09-17T05:07:17;9.80;99.90
4643;DHT22;2334;48.710;9.622;2022-09-17T05:09:44;9.90;99.90
4643;DHT22;2334;48.710;9.622;2022-09-17T05:12:11;9.90;99.90
4643;DHT22;2334;48.710;9.622;2022-09-17T05:14:38;9.90;99.90
4643;DHT22;2334;48.710;9.622;2022-09-17T05:17:05;9.80;99.90
4643;DHT22;2334;48.710;9.622;2022-09-17T05:19:32;9.80;99.90
4643;DHT22;2334;48.710;9.622;2022-09-17T05:22:00;9.80;99.90
4643;DHT22;2334;48.710;9.622;2022-09-17T05:24:27;9.80;99.90
4643;DHT22;2334;48.710;9.622;2022-09-17T05:26:54;9.90;99.90
4643;DHT22;2334;48.710;9.622;2022-09-17T05:29:21;9.90;99.90
4643;DHT22;2334;48.710;9.622;2022-09-17T05:31:47;10.00;99.90
4643;DHT22;2334;48.710;9.622;2022-09-17T05:34:14;10.00;99.90
4643;DHT22;2334;48.710;9.622;2022-09-17T05:36:41;10.00;99.90
4643;DHT22;2334;48.710;9.622;2022-09-17T05:39:09;10.10;99.90
4643;DHT22;2334;48.710;9.622;2022-09-17T05:41:36;10.00;99.90
4643;DHT22;2334;48.710;9.622;2022-09-17T05:44:03;10.10;99.90
4643;DHT22;2334;48.710;9.622;2022-09-17T05:46:30;10.10;99.90
4643;DHT22;2334;48.710;9.622;2022-09-17T05:48:57;10.00;99.90
4643;DHT22;2334;48.710;9.622;2022-09-17T05:51:24;10.10;99.90
4643;DHT22;2334;48.710;9.622;2022-09-17T05:53:53;10.10;99.90
4643;DHT22;2334;48.710;9.622;2022-09-17T05:56:21;10.10;99.90
4643;DHT22;2334;48.710;9.622;2022-09-17T05:58:48;10.10;99.90
4643;DHT22;2334;48.710;9.622;2022-09-17T06:01:15;10.10;99.90
4643;DHT22;2334;48.710;9.622;2022-09-17T06:03:42;10.00;99.90
4643;DHT22;2334;48.710;9.622;2022-09-17T06:06:09;10.00;99.90
4643;DHT22;2334;48.710;9.622;2022-09-17T06:08:36;10.10;99.90
4643;DHT22;2334;48.710;9.622;2022-09-17T06:11:03;10.20;99.90
4643;DHT22;2334;48.710;9.622;2022-09-17T06:13:32;10.10;99.90
4643;DHT22;2334;48.710;9.622;2022-09-17T06:16:00;10.10;99.90
4643;DHT22;2334;48.710;9.622;2022-09-17T06:18:28;10.10;99.90
4643;DHT22;2334;48.710;9.622;2022-09-17T06:20:56;10.10;99.90
4643;DHT22;2334;48.710;9.622;2022-09-17T06:23:24;10.10;99.90
4643;DHT22;2334;48.710;9.622;2022-09-17T06:25:52;10.20;99.90
4643;DHT22;2334;48.710;9.622;2022-09-17T06:28:20;10.20;99.90
4643;DHT22;2334;48.710;9.622;2022-09-17T06:30:48;10.20;99.90
4643;DHT22;2334;48.710;9.622;2022-09-17T06:33:18;10.30;99.90
4643;DHT22;2334;48.710;9.622;2022-09-17T06:35:45;10.30;99.90
4643;DHT22;2334;48.710;9.622;2022-09-17T06:38:13;10.30;99.90
4643;DHT22;2334;48.710;9.622;2022-09-17T06:40:40;10.40;99.90
4643;DHT22;2334;48.710;9.622;2022-09-17T06:43:07;10.40;99.90
4643;DHT22;2334;48.710;9.622;2022-09-17T06:45:34;10.40;99.90
4643;DHT22;2334;48.710;9.622;2022-09-17T06:48:04;10.40;99.90
4643;DHT22;2334;48.710;9.622;2022-09-17T06:50:31;10.40;99.90
4643;DHT22;2334;48.710;9.622;2022-09-17T06:52:58;10.30;99.90
4643;DHT22;2334;48.710;9.622;2022-09-17T06:55:25;10.40;99.90
4643;DHT22;2334;48.710;9.622;2022-09-17T06:57:52;10.30;99.90
4643;DHT22;2334;48.710;9.622;2022-09-17T07:00:19;10.30;99.90
4643;DHT22;2334;48.710;9.622;2022-09-17T07:02:54;10.40;99.90
4643;DHT22;2334;48.710;9.622;2022-09-17T07:05:24;10.30;99.90
4643;DHT22;2334;48.710;9.622;2022-09-17T07:07:51;10.40;99.90
4643;DHT22;2334;48.710;9.622;2022-09-17T07:10:18;10.30;99.90
4643;DHT22;2334;48.710;9.622;2022-09-17T07:12:45;10.30;99.90
4643;DHT22;2334;48.710;9.622;2022-09-17T07:15:12;10.30;99.90
4643;DHT22;2334;48.710;9.622;2022-09-17T07:17:40;10.20;99.90
4643;DHT22;2334;48.710;9.622;2022-09-17T07:20:10;10.20;99.90
4643;DHT22;2334;48.710;9.622;2022-09-17T07:22:38;10.20;99.90
4643;DHT22;2334;48.710;9.622;2022-09-17T07:25:06;10.40;99.90
4643;DHT22;2334;48.710;9.622;2022-09-17T07:27:33;10.20;99.90
4643;DHT22;2334;48.710;9.622;2022-09-17T07:30:00;10.30;99.90
4643;DHT22;2334;48.710;9.622;2022-09-17T07:32:28;10.30;99.90
4643;DHT22;2334;48.710;9.622;2022-09-17T07:34:55;10.20;99.90
4643;DHT22;2334;48.710;9.622;2022-09-17T07:37:23;10.30;99.90
4643;DHT22;2334;48.710;9.622;2022-09-17T07:39:51;10.30;99.90
4643;DHT22;2334;48.710;9.622;2022-09-17T07:42:18;10.30;99.90
4643;DHT22;2334;48.710;9.622;2022-09-17T07:44:47;10.20;99.90
4643;DHT22;2334;48.710;9.622;2022-09-17T07:47:14;10.30;99.90
4643;DHT22;2334;48.710;9.622;2022-09-17T07:49:40;10.40;99.90
4643;DHT22;2334;48.710;9.622;2022-09-17T07:52:07;10.30;99.90
4643;DHT22;2334;48.710;9.622;2022-09-17T07:54:34;10.20;99.90
4643;DHT22;2334;48.710;9.622;2022-09-17T07:57:04;10.10;99.90
4643;DHT22;2334;48.710;9.622;2022-09-17T07:59:31;10.00;99.90
4643;DHT22;2334;48.710;9.622;2022-09-17T08:01:57;10.10;99.90
4643;DHT22;2334;48.710;9.622;2022-09-17T08:04:24;10.00;99.90
4643;DHT22;2334;48.710;9.622;2022-09-17T08:06:52;9.90;99.90
4643;DHT22;2334;48.710;9.622;2022-09-17T08:09:20;9.80;99.90
4643;DHT22;2334;48.710;9.622;2022-09-17T08:11:47;9.90;99.90
4643;DHT22;2334;48.710;9.622;2022-09-17T08:14:16;9.90;99.90
4643;DHT22;2334;48.710;9.622;2022-09-17T08:16:43;9.90;99.90
4643;DHT22;2334;48.710;9.622;2022-09-17T08:19:11;9.80;99.90
4643;DHT22;2334;48.710;9.622;2022-09-17T08:21:38;9.90;99.90
4643;DHT22;2334;48.710;9.622;2022-09-17T08:24:05;9.80;99.90
4643;DHT22;2334;48.710;9.622;2022-09-17T08:26:32;9.80;99.90
4643;DHT22;2334;48.710;9.622;2022-09-17T08:29:00;9.90;99.90
4643;DHT22;2334;48.710;9.622;2022-09-17T08:31:29;9.80;99.90
4643;DHT22;2334;48.710;9.622;2022-09-17T08:33:57;9.90;99.90
4643;DHT22;2334;48.710;9.622;2022-09-17T08:36:24;9.90;99.90
4643;DHT22;2334;48.710;9.622;2022-09-17T08:38:53;9.90;99.90
4643;DHT22;2334;48.710;9.622;2022-09-17T08:41:25;9.70;99.90
4643;DHT22;2334;48.710;9.622;2022-09-17T08:44:02;9.70;99.90
4643;DHT22;2334;48.710;9.622;2022-09-17T08:46:39;9.70;99.90
4643;DHT22;2334;48.710;9.622;2022-09-17T08:49:11;9.70;99.90
4643;DHT22;2334;48.710;9.622;2022-09-17T08:51:48;9.80;99.90
4643;DHT22;2334;48.710;9.622;2022-09-17T08:54:23;9.80;99.90
4643;DHT22;2334;48.710;9.622;2022-09-17T08:57:14;9.80;99.90
4643;DHT22;2334;48.710;9.622;2022-09-17T08:59:48;9.90;99.90
4643;DHT22;2334;48.710;9.622;2022-09-17T09:02:30;9.90;99.90
4643;DHT22;2334;48.710;9.622;2022-09-17T09:05:04;10.00;99.90
4643;DHT22;2334;48.710;9.622;2022-09-17T09:07:36;10.00;99.90
4643;DHT22;2334;48.710;9.622;2022-09-17T09:10:13;10.10;99.90
4643;DHT22;2334;48.710;9.622;2022-09-17T09:12:41;10.20;99.90
4643;DHT22;2334;48.710;9.622;2022-09-17T09:15:22;10.20;99.90
4643;DHT22;2334;48.710;9.622;2022-09-17T09:17:53;10.10;99.90
4643;DHT22;2334;48.710;9.622;2022-09-17T09:20:28;10.20;99.90
4643;DHT22;2334;48.710;9.622;2022-09-17T09:23:00;10.20;99.90
4643;DHT22;2334;48.710;9.622;2022-09-17T09:25:38;10.20;99.90
4643;DHT22;2334;48.710;9.622;2022-09-17T09:28:28;10.20;99.90
4643;DHT22;2334;48.710;9.622;2022-09-17T09:31:04;10.30;99.90
4643;DHT22;2334;48.710;9.622;2022-09-17T09:33:38;10.30;99.90
4643;DHT22;2334;48.710;9.622;2022-09-17T09:36:11;10.40;99.90
4643;DHT22;2334;48.710;9.622;2022-09-17T09:38:42;10.40;99.90
4643;DHT22;2334;48.710;9.622;2022-09-17T09:41:11;10.50;99.90
4643;DHT22;2334;48.710;9.622;2022-09-17T09:43:42;10.50;99.90
4643;DHT22;2334;48.710;9.622;2022-09-17T09:46:36;10.60;99.90
4643;DHT22;2334;48.710;9.622;2022-09-17T09:49:19;10.70;99.90
4643;DHT22;2334;48.710;9.622;2022-09-17T09:51:57;10.80;99.90
4643;DHT22;2334;48.710;9.622;2022-09-17T09:54:41;10.90;99.90
4643;DHT22;2334;48.710;9.622;2022-09-17T09:57:12;10.90;99.90
4643;DHT22;2334;48.710;9.622;2022-09-17T09:59:39;10.90;99.90
4643;DHT22;2334;48.710;9.622;2022-09-17T10:02:07;10.70;99.90
4643;DHT22;2334;48.710;9.622;2022-09-17T10:04:35;10.80;99.90
4643;DHT22;2334;48.710;9.622;2022-09-17T10:07:04;11.00;99.90
4643;DHT22;2334;48.710;9.622;2022-09-17T10:09:33;11.30;99.90
4643;DHT22;2334;48.710;9.622;2022-09-17T10:12:04;11.50;99.90
4643;DHT22;2334;48.710;9.622;2022-09-17T10:14:32;11.80;99.90
4643;DHT22;2334;48.710;9.622;2022-09-17T10:17:17;12.00;99.90
4643;DHT22;2334;48.710;9.622;2022-09-17T10:22:30;11.80;99.90
4643;DHT22;2334;48.710;9.622;2022-09-17T10:25:00;11.60;99.90
4643;DHT22;2334;48.710;9.622;2022-09-17T10:27:27;11.40;99.90
4643;DHT22;2334;48.710;9.622;2022-09-17T10:30:01;11.30;99.90
4643;DHT22;2334;48.710;9.622;2022-09-17T10:32:29;11.30;99.90
4643;DHT22;2334;48.710;9.622;2022-09-17T10:35:13;11.20;99.90
4643;DHT22;2334;48.710;9.622;2022-09-17T10:37:51;11.20;99.90
4643;DHT22;2334;48.710;9.622;2022-09-17T10:40:27;11.50;99.90
4643;DHT22;2334;48.710;9.622;2022-09-17T10:43:21;11.50;99.90
4643;DHT22;2334;48.710;9.622;2022-09-17T10:45:56;11.80;99.90
4643;DHT22;2334;48.710;9.622;2022-09-17T10:48:26;11.90;99.90
4643;DHT22;2334;48.710;9.622;2022-09-17T10:50:56;12.10;99.90
4643;DHT22;2334;48.710;9.622;2022-09-17T10:53:25;12.00;99.90
4643;DHT22;2334;48.710;9.622;2022-09-17T10:55:57;12.00;99.90
4643;DHT22;2334;48.710;9.622;2022-09-17T10:58:37;12.00;99.90
4643;DHT22;2334;48.710;9.622;2022-09-17T11:01:14;12.00;99.90
4643;DHT22;2334;48.710;9.622;2022-09-17T11:03:53;12.10;99.90
4643;DHT22;2334;48.710;9.622;2022-09-17T11:06:34;12.20;99.90
4643;DHT22;2334;48.710;9.622;2022-09-17T11:09:15;12.40;99.90
4643;DHT22;2334;48.710;9.622;2022-09-17T11:11:54;12.20;99.90
4643;DHT22;2334;48.710;9.622;2022-09-17T11:14:40;12.30;99.90
4643;DHT22;2334;48.710;9.622;2022-09-17T11:17:35;12.20;99.90
4643;DHT22;2334;48.710;9.622;2022-09-17T11:20:19;12.20;99.90
4643;DHT22;2334;48.710;9.622;2022-09-17T11:22:55;12.40;99.90
4643;DHT22;2334;48.710;9.622;2022-09-17T11:25:33;12.70;99.90
4643;DHT22;2334;48.710;9.622;2022-09-17T11:28:10;13.40;99.90
4643;DHT22;2334;48.710;9.622;2022-09-17T11:30:51;13.50;99.90
4643;DHT22;2334;48.710;9.622;2022-09-17T11:33:32;14.00;99.90
4643;DHT22;2334;48.710;9.622;2022-09-17T11:36:10;14.00;99.90
4643;DHT22;2334;48.710;9.622;2022-09-17T11:38:42;13.70;99.90
4643;DHT22;2334;48.710;9.622;2022-09-17T11:41:15;13.30;99.90
4643;DHT22;2334;48.710;9.622;2022-09-17T11:43:48;13.20;99.90
4643;DHT22;2334;48.710;9.622;2022-09-17T11:46:20;13.10;99.90
4643;DHT22;2334;48.710;9.622;2022-09-17T11:48:51;13.20;99.90
4643;DHT22;2334;48.710;9.622;2022-09-17T11:51:25;13.20;99.90
4643;DHT22;2334;48.710;9.622;2022-09-17T11:53:59;13.20;99.90
4643;DHT22;2334;48.710;9.622;2022-09-17T11:56:30;13.20;99.90
4643;DHT22;2334;48.710;9.622;2022-09-17T11:59:02;13.70;99.90
4643;DHT22;2334;48.710;9.622;2022-09-17T12:01:33;14.10;99.90
4643;DHT22;2334;48.710;9.622;2022-09-17T12:04:14;14.10;99.90
4643;DHT22;2334;48.710;9.622;2022-09-17T12:06:47;14.30;99.90
4643;DHT22;2334;48.710;9.622;2022-09-17T12:09:20;14.50;99.90
4643;DHT22;2334;48.710;9.622;2022-09-17T12:11:51;14.40;99.90
4643;DHT22;2334;48.710;9.622;2022-09-17T12:14:22;14.20;99.90
4643;DHT22;2334;48.710;9.622;2022-09-17T12:16:54;14.10;99.90
4643;DHT22;2334;48.710;9.622;2022-09-17T12:19:26;14.10;99.90
4643;DHT22;2334;48.710;9.622;2022-09-17T12:21:58;14.00;99.90
4643;DHT22;2334;48.710;9.622;2022-09-17T12:24:29;13.90;99.90
4643;DHT22;2334;48.710;9.622;2022-09-17T12:27:03;13.70;99.90
4643;DHT22;2334;48.710;9.622;2022-09-17T12:30:03;13.60;99.90
4643;DHT22;2334;48.710;9.622;2022-09-17T12:32:53;13.50;99.90
4643;DHT22;2334;48.710;9.622;2022-09-17T12:35:36;13.30;99.90
4643;DHT22;2334;48.710;9.622;2022-09-17T12:38:18;13.20;99.90
4643;DHT22;2334;48.710;9.622;2022-09-17T12:40:52;13.20;99.90
4643;DHT22;2334;48.710;9.622;2022-09-17T12:43:37;13.20;99.90
4643;DHT22;2334;48.710;9.622;2022-09-17T12:46:16;13.30;99.90
4643;DHT22;2334;48.710;9.622;2022-09-17T12:49:01;13.30;99.90
4643;DHT22;2334;48.710;9.622;2022-09-17T12:51:49;13.30;99.90
4643;DHT22;2334;48.710;9.622;2022-09-17T12:57:11;13.30;99.90
4643;DHT22;2334;48.710;9.622;2022-09-17T12:59:47;13.60;99.90
4643;DHT22;2334;48.710;9.622;2022-09-17T13:02:18;13.80;99.90
4643;DHT22;2334;48.710;9.622;2022-09-17T13:10:53;14.00;99.90
4643;DHT22;2334;48.710;9.622;2022-09-17T13:13:34;14.00;99.90
4643;DHT22;2334;48.710;9.622;2022-09-17T13:16:07;13.70;99.90
4643;DHT22;2334;48.710;9.622;2022-09-17T13:18:42;13.40;99.90
4643;DHT22;2334;48.710;9.622;2022-09-17T13:21:18;13.20;99.90
4643;DHT22;2334;48.710;9.622;2022-09-17T13:23:48;13.10;99.90
4643;DHT22;2334;48.710;9.622;2022-09-17T13:26:18;13.10;99.90
4643;DHT22;2334;48.710;9.622;2022-09-17T13:28:48;13.40;99.90
4643;DHT22;2334;48.710;9.622;2022-09-17T13:31:20;13.40;99.90
4643;DHT22;2334;48.710;9.622;2022-09-17T13:33:56;13.60;99.90
4643;DHT22;2334;48.710;9.622;2022-09-17T13:36:51;13.70;99.90
4643;DHT22;2334;48.710;9.622;2022-09-17T13:39:41;13.80;99.90
4643;DHT22;2334;48.710;9.622;2022-09-17T13:42:20;13.50;99.90
4643;DHT22;2334;48.710;9.622;2022-09-17T13:45:03;13.50;99.90
4643;DHT22;2334;48.710;9.622;2022-09-17T13:47:31;13.40;99.90
4643;DHT22;2334;48.710;9.622;2022-09-17T13:50:01;13.30;99.90
4643;DHT22;2334;48.710;9.622;2022-09-17T13:52:47;13.30;99.90
4643;DHT22;2334;48.710;9.622;2022-09-17T13:55:32;13.30;99.90
4643;DHT22;2334;48.710;9.622;2022-09-17T13:58:02;13.10;99.90
4643;DHT22;2334;48.710;9.622;2022-09-17T14:00:51;13.00;99.90
4643;DHT22;2334;48.710;9.622;2022-09-17T14:03:50;12.80;99.90
4643;DHT22;2334;48.710;9.622;2022-09-17T14:06:47;12.80;99.90
4643;DHT22;2334;48.710;9.622;2022-09-17T14:09:44;12.80;99.90
4643;DHT22;2334;48.710;9.622;2022-09-17T14:15:35;13.00;99.90
4643;DHT22;2334;48.710;9.622;2022-09-17T14:18:31;13.00;99.90
4643;DHT22;2334;48.710;9.622;2022-09-17T14:21:05;13.30;99.90
4643;DHT22;2334;48.710;9.622;2022-09-17T14:23:43;13.20;99.90
4643;DHT22;2334;48.710;9.622;2022-09-17T14:26:15;13.20;99.90
4643;DHT22;2334;48.710;9.622;2022-09-17T14:28:48;13.10;99.90
4643;DHT22;2334;48.710;9.622;2022-09-17T14:31:29;12.80;99.90
4643;DHT22;2334;48.710;9.622;2022-09-17T14:34:01;12.80;99.90
4643;DHT22;2334;48.710;9.622;2022-09-17T14:36:36;12.60;99.90
4643;DHT22;2334;48.710;9.622;2022-09-17T14:39:07;12.50;99.90
4643;DHT22;2334;48.710;9.622;2022-09-17T14:41:39;12.60;99.90
4643;DHT22;2334;48.710;9.622;2022-09-17T14:44:12;12.80;99.90
4643;DHT22;2334;48.710;9.622;2022-09-17T14:46:45;12.90;99.90
4643;DHT22;2334;48.710;9.622;2022-09-17T14:49:19;13.00;99.90
4643;DHT22;2334;48.710;9.622;2022-09-17T14:51:47;13.10;99.90
4643;DHT22;2334;48.710;9.622;2022-09-17T14:54:17;13.20;99.90
4643;DHT22;2334;48.710;9.622;2022-09-17T14:56:51;13.30;99.90
4643;DHT22;2334;48.710;9.622;2022-09-17T14:59:23;13.60;99.90
4643;DHT22;2334;48.710;9.622;2022-09-17T15:01:52;13.60;99.90
4643;DHT22;2334;48.710;9.622;2022-09-17T15:04:25;13.20;99.90
4643;DHT22;2334;48.710;9.622;2022-09-17T15:07:05;13.00;99.90
4643;DHT22;2334;48.710;9.622;2022-09-17T15:09:32;13.50;99.90
4643;DHT22;2334;48.710;9.622;2022-09-17T15:12:00;13.30;99.90
4643;DHT22;2334;48.710;9.622;2022-09-17T15:14:28;13.30;99.90
4643;DHT22;2334;48.710;9.622;2022-09-17T15:16:58;13.60;99.90
4643;DHT22;2334;48.710;9.622;2022-09-17T15:19:30;13.40;99.90
4643;DHT22;2334;48.710;9.622;2022-09-17T15:22:00;13.10;99.90
4643;DHT22;2334;48.710;9.622;2022-09-17T15:24:36;13.00;99.90
4643;DHT22;2334;48.710;9.622;2022-09-17T15:27:11;13.00;99.90
4643;DHT22;2334;48.710;9.622;2022-09-17T15:29:42;12.90;99.90
4643;DHT22;2334;48.710;9.622;2022-09-17T15:32:11;12.80;99.90
4643;DHT22;2334;48.710;9.622;2022-09-17T15:34:42;12.90;99.90
4643;DHT22;2334;48.710;9.622;2022-09-17T15:37:17;12.90;99.90
4643;DHT22;2334;48.710;9.622;2022-09-17T15:39:48;12.90;99.90
4643;DHT22;2334;48.710;9.622;2022-09-17T15:42:18;12.90;99.90
4643;DHT22;2334;48.710;9.622;2022-09-17T15:44:46;12.90;99.90
4643;DHT22;2334;48.710;9.622;2022-09-17T15:47:36;13.00;99.90
4643;DHT22;2334;48.710;9.622;2022-09-17T15:50:11;13.10;99.90
4643;DHT22;2334;48.710;9.622;2022-09-17T15:52:39;13.40;99.90
4643;DHT22;2334;48.710;9.622;2022-09-17T15:55:29;13.30;99.90
4643;DHT22;2334;48.710;9.622;2022-09-17T15:57:57;13.20;99.90
4643;DHT22;2334;48.710;9.622;2022-09-17T16:00:24;13.20;99.90
4643;DHT22;2334;48.710;9.622;2022-09-17T16:02:52;13.10;99.90
4643;DHT22;2334;48.710;9.622;2022-09-17T16:05:47;12.90;99.90
4643;DHT22;2334;48.710;9.622;2022-09-17T16:08:20;12.80;99.90
4643;DHT22;2334;48.710;9.622;2022-09-17T16:10:48;12.60;99.90
4643;DHT22;2334;48.710;9.622;2022-09-17T16:13:14;12.60;99.90
4643;DHT22;2334;48.710;9.622;2022-09-17T16:15:41;12.40;99.90
4643;DHT22;2334;48.710;9.622;2022-09-17T16:18:12;12.40;99.90
4643;DHT22;2334;48.710;9.622;2022-09-17T16:20:40;12.30;99.90
4643;DHT22;2334;48.710;9.622;2022-09-17T16:23:09;12.40;99.90
4643;DHT22;2334;48.710;9.622;2022-09-17T16:25:36;12.90;99.90
4643;DHT22;2334;48.710;9.622;2022-09-17T16:28:10;13.60;99.90
4643;DHT22;2334;48.710;9.622;2022-09-17T16:30:42;13.60;99.90
4643;DHT22;2334;48.710;9.622;2022-09-17T16:33:11;13.40;99.90
4643;DHT22;2334;48.710;9.622;2022-09-17T16:35:39;13.00;99.90
4643;DHT22;2334;48.710;9.622;2022-09-17T16:38:07;12.70;99.90
4643;DHT22;2334;48.710;9.622;2022-09-17T16:40:39;12.50;99.90
4643;DHT22;2334;48.710;9.622;2022-09-17T16:43:07;12.50;99.90
4643;DHT22;2334;48.710;9.622;2022-09-17T16:45:34;12.40;99.90
4643;DHT22;2334;48.710;9.622;2022-09-17T16:48:01;12.40;99.90
4643;DHT22;2334;48.710;9.622;2022-09-17T16:50:28;12.30;99.90
4643;DHT22;2334;48.710;9.622;2022-09-17T16:52:56;12.20;99.90
4643;DHT22;2334;48.710;9.622;2022-09-17T16:55:24;12.20;99.90
4643;DHT22;2334;48.710;9.622;2022-09-17T16:57:52;12.10;99.90
4643;DHT22;2334;48.710;9.622;2022-09-17T17:00:22;12.10;99.90